Terminal Aerodrome Forecast
Issued by NWS Charleston, WV

Current Version | Previous Version | Text Only | Print | Product List | Glossary Off
Versions: 1 2 3 4 5 6 7 8 9 10 11 12 13 14 15 16 17 18 19 20 21 22

220
FTUS41 KRLX 220240 AAA
TAFHTS
TAF AMD
KHTS 220240Z 2203/2224 19005KT P6SM SHRA VCTS BKN040CB
     FM220400 VRB03KT P6SM BKN025
     FM221300 29004KT P6SM SCT035
     FM221800 28004KT P6SM SCT150=

USA.gov is the U.S. government's official web portal to all federal, state and local government web resources and services.